createdAt,value
2023-04-02T00:00:31.950Z,0.00
2023-04-02T00:01:31.922Z,0.00
2023-04-02T00:02:32.029Z,0.00
2023-04-02T00:03:31.947Z,0.00
2023-04-02T00:04:31.885Z,0.00
2023-04-02T00:05:31.931Z,0.00
2023-04-02T00:06:31.918Z,0.00
2023-04-02T00:07:31.856Z,0.00
2023-04-02T00:08:31.842Z,0.00
2023-04-02T00:09:31.836Z,0.00
2023-04-02T00:10:31.834Z,0.00
2023-04-02T00:11:31.821Z,0.00
2023-04-02T00:12:31.820Z,0.00
2023-04-02T00:13:31.833Z,0.00
2023-04-02T00:14:31.788Z,0.00
2023-04-02T00:15:31.775Z,0.00
2023-04-02T00:16:31.802Z,0.00
2023-04-02T00:17:31.745Z,0.00
2023-04-02T00:18:31.795Z,0.00
2023-04-02T00:19:31.746Z,0.00
2023-04-02T00:20:31.711Z,0.00
2023-04-02T00:21:31.731Z,0.00
2023-04-02T00:22:31.706Z,0.00
2023-04-02T00:23:31.682Z,0.00
2023-04-02T00:24:31.689Z,0.00
2023-04-02T00:25:31.649Z,0.00
2023-04-02T00:26:31.649Z,0.00
2023-04-02T00:27:31.630Z,0.00
2023-04-02T00:28:31.624Z,0.00
2023-04-02T00:29:31.649Z,0.00
2023-04-02T00:30:31.599Z,0.00
2023-04-02T00:31:31.614Z,0.00
2023-04-02T00:32:31.649Z,0.00
2023-04-02T00:33:31.581Z,0.00
2023-04-02T00:34:31.567Z,0.00
2023-04-02T00:35:31.540Z,0.00
2023-04-02T00:36:31.534Z,0.00
2023-04-02T00:37:31.595Z,0.00
2023-04-02T00:38:31.513Z,0.00
2023-04-02T00:39:31.513Z,0.00
2023-04-02T00:40:31.488Z,0.00
2023-04-02T00:41:31.484Z,0.00
2023-04-02T00:42:31.553Z,0.00
2023-04-02T00:43:31.471Z,0.00
2023-04-02T00:44:31.444Z,0.00
2023-04-02T00:45:31.450Z,0.00
2023-04-02T00:46:31.444Z,0.00
2023-04-02T00:47:31.453Z,0.00
2023-04-02T00:48:31.394Z,0.00
2023-04-02T00:49:31.642Z,0.00
2023-04-02T00:50:31.399Z,0.00
2023-04-02T00:51:31.396Z,0.00
2023-04-02T00:52:31.355Z,0.00
2023-04-02T00:53:31.348Z,0.00
2023-04-02T00:54:31.354Z,0.00
2023-04-02T00:55:31.337Z,0.00
2023-04-02T00:56:31.310Z,0.00
2023-04-02T00:57:31.368Z,0.00
2023-04-02T00:58:31.287Z,0.00
2023-04-02T00:59:31.299Z,0.00
2023-04-02T01:00:31.269Z,0.00
2023-04-02T01:01:31.449Z,0.00
2023-04-02T01:02:31.320Z,0.00
2023-04-02T01:03:31.439Z,0.00
2023-04-02T01:04:31.228Z,0.00
2023-04-02T01:05:31.211Z,0.00
2023-04-02T01:06:31.207Z,0.00
2023-04-02T01:07:31.188Z,0.00
2023-04-02T01:08:31.377Z,0.00
2023-04-02T01:09:31.189Z,0.00
2023-04-02T01:10:31.212Z,0.00
2023-04-02T01:11:31.148Z,0.00
2023-04-02T01:12:31.135Z,0.00
2023-04-02T01:13:31.140Z,0.00
2023-04-02T01:14:31.129Z,0.00
2023-04-02T01:15:31.169Z,0.00
2023-04-02T01:16:31.435Z,0.00
2023-04-02T01:17:31.153Z,0.00
2023-04-02T01:18:31.081Z,0.00
2023-04-02T01:19:31.069Z,0.00
2023-04-02T01:20:31.039Z,0.00
2023-04-02T01:21:31.034Z,0.00
2023-04-02T01:22:31.052Z,0.00
2023-04-02T01:23:31.021Z,0.00
2023-04-02T01:24:31.029Z,0.00
2023-04-02T01:25:30.979Z,0.00
2023-04-02T01:26:30.975Z,0.00
2023-04-02T01:27:30.962Z,0.00
2023-04-02T01:28:30.981Z,0.00
2023-04-02T01:29:30.939Z,0.00
2023-04-02T01:30:30.926Z,0.00
2023-04-02T01:31:31.078Z,0.00
2023-04-02T01:32:30.982Z,0.00
2023-04-02T01:33:30.912Z,0.00
2023-04-02T01:34:30.936Z,0.00
2023-04-02T01:35:30.873Z,0.00
2023-04-02T01:36:30.887Z,0.00
2023-04-02T01:37:30.853Z,0.00
2023-04-02T01:38:30.865Z,0.00
2023-04-02T01:39:30.822Z,0.00
2023-04-02T01:40:30.816Z,0.00
2023-04-02T01:41:30.832Z,0.00
2023-04-02T01:42:30.796Z,0.00
2023-04-02T01:43:30.785Z,0.00
2023-04-02T01:44:30.796Z,0.00
2023-04-02T01:45:30.756Z,0.00
2023-04-02T01:46:30.764Z,0.00
2023-04-02T01:47:30.759Z,0.00
2023-04-02T01:48:30.856Z,0.00
2023-04-02T01:49:30.746Z,0.00
2023-04-02T01:50:30.713Z,0.00
2023-04-02T01:51:30.689Z,0.00
2023-04-02T01:52:30.680Z,0.00
2023-04-02T01:53:30.679Z,0.00
2023-04-02T01:54:30.670Z,0.00
2023-04-02T01:55:30.651Z,0.00
2023-04-02T01:56:30.639Z,0.00
2023-04-02T01:57:30.708Z,0.00
2023-04-02T01:58:30.620Z,0.00
2023-04-02T01:59:30.618Z,0.00
2023-04-02T02:00:30.795Z,0.00
2023-04-02T02:01:30.587Z,0.00
2023-04-02T02:02:30.701Z,0.00
2023-04-02T02:03:30.563Z,0.00
2023-04-02T02:04:30.566Z,0.00
2023-04-02T02:05:31.167Z,0.00
2023-04-02T02:06:30.532Z,0.00
2023-04-02T02:07:30.532Z,0.00
2023-04-02T02:08:30.507Z,0.00
2023-04-02T02:09:30.497Z,0.00
2023-04-02T02:10:30.513Z,0.00
2023-04-02T02:11:30.468Z,0.00
2023-04-02T02:12:30.464Z,0.00
2023-04-02T02:13:30.460Z,0.00
2023-04-02T02:14:30.444Z,0.00
2023-04-02T02:15:30.441Z,0.00
2023-04-02T02:16:30.496Z,0.00
2023-04-02T02:17:30.439Z,0.00
2023-04-02T02:18:30.391Z,0.00
2023-04-02T02:19:30.392Z,0.00
2023-04-02T02:20:30.400Z,0.00
2023-04-02T02:21:30.385Z,0.00
2023-04-02T02:22:30.364Z,0.00
2023-04-02T02:23:30.342Z,0.00
2023-04-02T02:24:30.332Z,0.00
2023-04-02T02:25:30.328Z,0.00
2023-04-02T02:26:30.329Z,0.00
2023-04-02T02:27:30.294Z,0.00
2023-04-02T02:28:30.281Z,0.00
2023-04-02T02:29:30.274Z,0.00
2023-04-02T02:30:30.274Z,0.00
2023-04-02T02:31:30.447Z,0.00
2023-04-02T02:32:30.257Z,0.00
2023-04-02T02:33:30.235Z,0.00
2023-04-02T02:34:30.219Z,0.00
2023-04-02T02:35:30.391Z,0.00
2023-04-02T02:36:30.203Z,0.00
2023-04-02T02:37:30.203Z,0.00
2023-04-02T02:38:30.184Z,0.00
2023-04-02T02:39:30.182Z,0.00
2023-04-02T02:40:30.185Z,0.00
2023-04-02T02:41:30.140Z,0.00
2023-04-02T02:42:30.128Z,0.00
2023-04-02T02:43:30.117Z,0.00
2023-04-02T02:44:30.115Z,0.00
2023-04-02T02:45:30.157Z,0.00
2023-04-02T02:46:30.100Z,0.00
2023-04-02T02:47:30.116Z,0.00
2023-04-02T02:48:30.067Z,0.00
2023-04-02T02:49:30.045Z,0.00
2023-04-02T02:50:30.198Z,0.00
2023-04-02T02:51:30.131Z,0.00
2023-04-02T02:52:30.109Z,0.00
2023-04-02T02:53:30.060Z,0.00
2023-04-02T02:54:29.990Z,0.00
2023-04-02T02:55:29.987Z,0.00
2023-04-02T02:56:29.987Z,0.00
2023-04-02T02:57:30.025Z,0.00
2023-04-02T02:58:29.993Z,0.00
2023-04-02T02:59:30.019Z,0.00
2023-04-02T03:00:29.936Z,0.00
2023-04-02T03:01:29.953Z,0.00
2023-04-02T03:02:29.966Z,0.00
2023-04-02T03:03:30.128Z,0.00
2023-04-02T03:04:29.914Z,0.00
2023-04-02T03:05:29.877Z,0.00
2023-04-02T03:06:29.883Z,0.00
2023-04-02T03:07:29.848Z,0.00
2023-04-02T03:08:29.840Z,0.00
2023-04-02T03:09:29.841Z,0.00
2023-04-02T03:10:29.812Z,0.00
2023-04-02T03:11:29.823Z,0.00
2023-04-02T03:12:29.790Z,0.00
2023-04-02T03:13:29.778Z,0.00
2023-04-02T03:14:29.771Z,0.00
2023-04-02T03:15:29.805Z,0.00
2023-04-02T03:16:29.742Z,0.00
2023-04-02T03:17:29.784Z,0.00
2023-04-02T03:18:29.826Z,0.00
2023-04-02T03:19:29.716Z,0.00
2023-04-02T03:20:29.698Z,0.00
2023-04-02T03:21:29.699Z,0.00
2023-04-02T03:22:29.711Z,0.00
2023-04-02T03:23:29.704Z,0.00
2023-04-02T03:24:29.671Z,0.00
2023-04-02T03:25:29.666Z,0.00
2023-04-02T03:26:29.652Z,0.00
2023-04-02T03:27:29.638Z,0.00
2023-04-02T03:28:29.618Z,0.00
2023-04-02T03:29:29.609Z,0.00
2023-04-02T03:30:29.593Z,0.00
2023-04-02T03:31:29.627Z,0.00
2023-04-02T03:32:29.617Z,0.00
2023-04-02T03:33:29.565Z,0.00
2023-04-02T03:34:29.554Z,0.00
2023-04-02T03:35:29.580Z,0.00
2023-04-02T03:36:29.530Z,0.00
2023-04-02T03:37:29.547Z,0.00
2023-04-02T03:38:29.505Z,0.00
2023-04-02T03:39:29.501Z,0.00
2023-04-02T03:40:29.489Z,0.00
2023-04-02T03:41:29.513Z,0.00
2023-04-02T03:42:29.576Z,0.00
2023-04-02T03:43:29.451Z,0.00
2023-04-02T03:44:29.440Z,0.00
2023-04-02T03:45:29.443Z,0.00
2023-04-02T03:46:29.437Z,0.00
2023-04-02T03:47:29.463Z,0.00
2023-04-02T03:48:29.396Z,0.00
2023-04-02T03:49:29.497Z,0.00
2023-04-02T03:50:29.377Z,0.00
2023-04-02T03:51:29.370Z,0.00
2023-04-02T03:52:29.360Z,0.00
2023-04-02T03:53:29.377Z,0.00
2023-04-02T03:54:29.439Z,0.00
2023-04-02T03:55:29.318Z,0.00
2023-04-02T03:56:29.320Z,0.00
2023-04-02T03:57:29.393Z,0.00
2023-04-02T03:58:29.301Z,0.00
2023-04-02T03:59:29.280Z,0.00
2023-04-02T04:00:29.269Z,0.00
2023-04-02T04:01:29.254Z,0.00
2023-04-02T04:02:29.324Z,0.00
2023-04-02T04:03:29.251Z,0.00
2023-04-02T04:04:29.375Z,0.00
2023-04-02T04:05:29.215Z,0.00
2023-04-02T04:06:29.212Z,0.00
2023-04-02T04:07:29.210Z,0.00
2023-04-02T04:08:29.188Z,0.00
2023-04-02T04:09:29.161Z,0.00
2023-04-02T04:10:29.155Z,0.00
2023-04-02T04:11:29.166Z,0.00
2023-04-02T04:12:29.145Z,0.00
2023-04-02T04:13:29.157Z,0.00
2023-04-02T04:14:29.109Z,0.00
2023-04-02T04:15:29.102Z,0.00
2023-04-02T04:16:29.113Z,0.00
2023-04-02T04:17:29.099Z,0.00
2023-04-02T04:18:29.076Z,0.00
2023-04-02T04:19:29.063Z,0.00
2023-04-02T04:20:29.041Z,0.00
2023-04-02T04:21:29.039Z,0.00
2023-04-02T04:22:29.058Z,0.00
2023-04-02T04:23:29.052Z,0.00
2023-04-02T04:24:29.007Z,0.00
2023-04-02T04:25:29.001Z,0.00
2023-04-02T04:26:28.975Z,0.00
2023-04-02T04:27:28.978Z,0.00
2023-04-02T04:28:28.959Z,0.00
2023-04-02T04:29:28.978Z,0.00
2023-04-02T04:30:28.933Z,0.00
2023-04-02T04:31:28.935Z,0.00
2023-04-02T04:32:28.945Z,0.00
2023-04-02T04:33:28.905Z,0.00
2023-04-02T04:34:29.115Z,0.00
2023-04-02T04:35:28.907Z,0.00
2023-04-02T04:36:29.135Z,0.00
2023-04-02T04:37:28.859Z,0.00
2023-04-02T04:38:28.851Z,0.00
2023-04-02T04:39:28.853Z,0.00
2023-04-02T04:40:28.838Z,0.00
2023-04-02T04:41:28.813Z,0.00
2023-04-02T04:42:28.805Z,0.00
2023-04-02T04:43:28.792Z,0.00
2023-04-02T04:44:28.826Z,0.00
2023-04-02T04:45:28.790Z,0.00
2023-04-02T04:46:28.911Z,0.00
2023-04-02T04:47:28.804Z,0.00
2023-04-02T04:48:28.733Z,0.00
2023-04-02T04:49:28.740Z,0.00
2023-04-02T04:50:28.732Z,0.00
2023-04-02T04:51:28.703Z,0.00
2023-04-02T04:52:28.686Z,0.00
2023-04-02T04:53:28.716Z,0.00
2023-04-02T04:54:28.671Z,5.62
2023-04-02T04:55:28.696Z,5.62
2023-04-02T04:56:28.644Z,5.62
2023-04-02T04:57:28.767Z,5.62
2023-04-02T04:58:28.812Z,5.62
2023-04-02T04:59:28.614Z,5.62
2023-04-02T05:00:28.721Z,5.62
2023-04-02T05:01:28.645Z,5.62
2023-04-02T05:02:28.599Z,5.62
2023-04-02T05:03:28.595Z,11.25
2023-04-02T05:04:28.610Z,11.25
2023-04-02T05:05:28.544Z,11.25
2023-04-02T05:06:28.538Z,11.25
2023-04-02T05:07:28.538Z,11.25
2023-04-02T05:08:28.521Z,11.25
2023-04-02T05:09:28.510Z,11.25
2023-04-02T05:10:28.538Z,11.25
2023-04-02T05:11:28.482Z,11.25
2023-04-02T05:12:28.516Z,11.25
2023-04-02T05:13:28.459Z,11.25
2023-04-02T05:14:28.449Z,11.25
2023-04-02T05:15:28.460Z,11.25
2023-04-02T05:16:28.443Z,11.25
2023-04-02T05:17:28.461Z,11.25
2023-04-02T05:18:28.408Z,11.25
2023-04-02T05:19:28.404Z,16.88
2023-04-02T05:20:28.391Z,16.88
2023-04-02T05:21:28.375Z,22.50
2023-04-02T05:22:28.359Z,28.12
2023-04-02T05:23:28.345Z,22.50
2023-04-02T05:24:28.334Z,22.50
2023-04-02T05:25:28.341Z,22.50
2023-04-02T05:26:29.266Z,22.50
2023-04-02T05:27:28.303Z,28.12
2023-04-02T05:28:28.291Z,28.12
2023-04-02T05:29:28.291Z,33.75
2023-04-02T05:30:28.280Z,33.75
2023-04-02T05:31:28.288Z,33.75
2023-04-02T05:32:28.252Z,33.75
2023-04-02T05:33:28.261Z,39.38
2023-04-02T05:34:28.247Z,39.38
2023-04-02T05:35:28.208Z,39.38
2023-04-02T05:36:28.274Z,45.00
2023-04-02T05:37:28.188Z,45.00
2023-04-02T05:38:28.195Z,45.00
2023-04-02T05:39:28.189Z,45.00
2023-04-02T05:40:28.172Z,56.25
2023-04-02T05:41:28.163Z,56.25
2023-04-02T05:42:28.135Z,50.62
2023-04-02T05:43:28.160Z,56.25
2023-04-02T05:44:28.111Z,56.25
2023-04-02T05:45:28.118Z,56.25
2023-04-02T05:46:28.145Z,61.88
2023-04-02T05:47:28.107Z,84.38
2023-04-02T05:48:28.066Z,78.75
2023-04-02T05:49:28.088Z,78.75
2023-04-02T05:50:28.183Z,106.88
2023-04-02T05:51:28.036Z,135.00
2023-04-02T05:52:28.036Z,146.25
2023-04-02T05:53:28.014Z,157.50
2023-04-02T05:54:28.000Z,135.00
2023-04-02T05:55:28.010Z,123.75
2023-04-02T05:56:27.975Z,118.12
2023-04-02T05:57:42.129Z,106.88
2023-04-02T05:58:35.382Z,123.75
2023-04-02T05:59:28.957Z,112.50
2023-04-02T06:00:27.944Z,95.62
2023-04-02T06:01:27.935Z,90.00
2023-04-02T06:02:28.026Z,84.38
2023-04-02T06:03:28.020Z,78.75
2023-04-02T06:04:27.971Z,73.12
2023-04-02T06:05:27.945Z,67.50
2023-04-02T06:06:27.922Z,67.50
2023-04-02T06:07:27.861Z,67.50
2023-04-02T06:08:27.883Z,73.12
2023-04-02T06:09:27.944Z,84.38
2023-04-02T06:10:27.894Z,95.62
2023-04-02T06:11:27.925Z,106.88
2023-04-02T06:12:27.808Z,118.12
2023-04-02T06:13:27.858Z,106.88
2023-04-02T06:14:27.789Z,95.62
2023-04-02T06:15:27.766Z,101.25
2023-04-02T06:16:27.800Z,118.12
2023-04-02T06:17:27.842Z,123.75
2023-04-02T06:18:27.742Z,163.12
2023-04-02T06:19:27.730Z,180.00
2023-04-02T06:20:27.749Z,191.25
2023-04-02T06:21:27.718Z,180.00
2023-04-02T06:22:27.712Z,185.62
2023-04-02T06:23:27.707Z,213.75
2023-04-02T06:24:27.681Z,219.38
2023-04-02T06:25:27.661Z,174.38
2023-04-02T06:26:27.653Z,168.75
2023-04-02T06:27:27.640Z,174.38
2023-04-02T06:28:27.743Z,196.88
2023-04-02T06:29:27.624Z,219.38
2023-04-02T06:30:27.671Z,230.62
2023-04-02T06:31:27.710Z,219.38
2023-04-02T06:32:27.625Z,241.88
2023-04-02T06:33:27.568Z,253.12
2023-04-02T06:34:27.555Z,241.88
2023-04-02T06:35:27.548Z,275.62
2023-04-02T06:36:27.556Z,281.25
2023-04-02T06:37:27.546Z,275.62
2023-04-02T06:38:27.538Z,241.88
2023-04-02T06:39:27.515Z,253.12
2023-04-02T06:40:28.231Z,270.00
2023-04-02T06:41:27.483Z,292.50
2023-04-02T06:42:27.474Z,309.38
2023-04-02T06:43:27.482Z,337.50
2023-04-02T06:44:27.450Z,523.12
2023-04-02T06:45:27.440Z,444.38
2023-04-02T06:46:27.486Z,427.50
2023-04-02T06:47:27.477Z,450.00
2023-04-02T06:48:27.406Z,337.50
2023-04-02T06:49:27.399Z,331.88
2023-04-02T06:50:27.394Z,365.62
2023-04-02T06:51:27.374Z,405.00
2023-04-02T06:52:27.379Z,472.50
2023-04-02T06:53:27.374Z,590.62
2023-04-02T06:54:27.347Z,585.00
2023-04-02T06:55:27.379Z,444.38
2023-04-02T06:56:27.315Z,348.75
2023-04-02T06:57:27.361Z,365.62
2023-04-02T06:58:27.314Z,303.75
2023-04-02T06:59:27.322Z,326.25
2023-04-02T07:00:27.279Z,382.50
2023-04-02T07:01:27.349Z,410.62
2023-04-02T07:02:27.287Z,382.50
2023-04-02T07:03:27.279Z,320.62
2023-04-02T07:04:27.305Z,984.38
2023-04-02T07:05:27.213Z,506.25
2023-04-02T07:06:41.753Z,697.50
2023-04-02T07:07:27.192Z,1327.50
2023-04-02T07:08:27.199Z,1068.75
2023-04-02T07:09:27.192Z,365.62
2023-04-02T07:10:27.157Z,315.00
2023-04-02T07:11:27.148Z,1220.62
2023-04-02T07:12:27.142Z,1366.88
2023-04-02T07:13:27.891Z,1473.75
2023-04-02T07:14:27.114Z,1485.00
2023-04-02T07:15:27.097Z,573.75
2023-04-02T07:16:27.297Z,1468.12
2023-04-02T07:17:27.135Z,405.00
2023-04-02T07:18:27.212Z,365.62
2023-04-02T07:19:27.058Z,517.50
2023-04-02T07:20:27.060Z,1665.00
2023-04-02T07:21:27.046Z,444.38
2023-04-02T07:22:27.026Z,607.50
2023-04-02T07:23:27.019Z,720.00
2023-04-02T07:24:27.008Z,753.75
2023-04-02T07:25:27.123Z,613.12
2023-04-02T07:26:26.980Z,450.00
2023-04-02T07:27:27.015Z,461.25
2023-04-02T07:28:26.974Z,607.50
2023-04-02T07:29:26.934Z,1811.25
2023-04-02T07:30:34.759Z,1749.38
2023-04-02T07:31:26.936Z,1580.62
2023-04-02T07:32:26.961Z,573.75
2023-04-02T07:33:26.926Z,1850.62
2023-04-02T07:34:26.888Z,1816.88
2023-04-02T07:35:26.874Z,483.75
2023-04-02T07:36:26.865Z,725.62
2023-04-02T07:37:26.854Z,1890.00
2023-04-02T07:38:26.854Z,1136.25
2023-04-02T07:39:26.853Z,1935.00
2023-04-02T07:40:26.817Z,663.75
2023-04-02T07:41:26.849Z,421.88
2023-04-02T07:42:26.797Z,421.88
2023-04-02T07:43:26.825Z,2058.75
2023-04-02T07:44:26.776Z,2053.12
2023-04-02T07:45:26.783Z,1541.25
2023-04-02T07:46:26.930Z,511.88
2023-04-02T07:47:26.802Z,388.12
2023-04-02T07:48:26.735Z,315.00
2023-04-02T07:49:26.770Z,264.38
2023-04-02T07:50:26.731Z,236.25
2023-04-02T07:51:26.699Z,225.00
2023-04-02T07:52:26.693Z,225.00
2023-04-02T07:53:26.676Z,213.75
2023-04-02T07:54:26.672Z,208.12
2023-04-02T07:55:26.678Z,225.00
2023-04-02T07:56:26.645Z,225.00
2023-04-02T07:57:26.712Z,219.38
2023-04-02T07:58:26.619Z,236.25
2023-04-02T07:59:26.619Z,247.50
2023-04-02T08:00:26.635Z,264.38
2023-04-02T08:01:26.605Z,292.50
2023-04-02T08:02:26.618Z,326.25
2023-04-02T08:03:26.720Z,309.38
2023-04-02T08:04:26.552Z,286.88
2023-04-02T08:05:26.566Z,275.62
2023-04-02T08:06:26.622Z,281.25
2023-04-02T08:07:26.521Z,337.50
2023-04-02T08:08:26.512Z,337.50
2023-04-02T08:09:26.497Z,286.88
2023-04-02T08:10:26.505Z,241.88
2023-04-02T08:11:26.474Z,219.38
2023-04-02T08:12:27.277Z,213.75
2023-04-02T08:13:26.477Z,225.00
2023-04-02T08:14:26.476Z,236.25
2023-04-02T08:15:26.449Z,247.50
2023-04-02T08:16:26.446Z,258.75
2023-04-02T08:17:26.480Z,281.25
2023-04-02T08:18:26.402Z,281.25
2023-04-02T08:19:26.412Z,281.25
2023-04-02T08:20:26.403Z,309.38
2023-04-02T08:21:26.391Z,337.50
2023-04-02T08:22:26.363Z,365.62
2023-04-02T08:23:26.354Z,360.00
2023-04-02T08:24:26.421Z,393.75
2023-04-02T08:25:26.323Z,416.25
2023-04-02T08:26:26.365Z,399.38
2023-04-02T08:27:26.310Z,444.38
2023-04-02T08:28:26.337Z,618.75
2023-04-02T08:29:26.309Z,534.38
2023-04-02T08:30:26.295Z,545.62
2023-04-02T08:31:26.379Z,601.88
2023-04-02T08:32:26.262Z,1327.50
2023-04-02T08:33:26.323Z,2773.12
2023-04-02T08:34:26.235Z,523.12
2023-04-02T08:35:26.218Z,483.75
2023-04-02T08:36:26.254Z,399.38
2023-04-02T08:37:26.206Z,326.25
2023-04-02T08:38:26.197Z,286.88
2023-04-02T08:39:26.167Z,258.75
2023-04-02T08:40:26.179Z,253.12
2023-04-02T08:41:26.154Z,270.00
2023-04-02T08:42:26.152Z,292.50
2023-04-02T08:43:26.126Z,281.25
2023-04-02T08:44:26.114Z,264.38
2023-04-02T08:45:26.120Z,264.38
2023-04-02T08:46:26.135Z,275.62
2023-04-02T08:47:26.151Z,326.25
2023-04-02T08:48:26.069Z,371.25
2023-04-02T08:49:26.069Z,365.62
2023-04-02T08:50:26.093Z,382.50
2023-04-02T08:51:26.052Z,382.50
2023-04-02T08:52:26.031Z,354.38
2023-04-02T08:53:26.016Z,326.25
2023-04-02T08:54:26.016Z,303.75
2023-04-02T08:55:26.014Z,286.88
2023-04-02T08:56:26.031Z,286.88
2023-04-02T08:57:26.043Z,320.62
2023-04-02T08:58:25.967Z,326.25
2023-04-02T08:59:25.969Z,309.38
2023-04-02T09:00:25.993Z,337.50
2023-04-02T09:01:26.013Z,348.75
2023-04-02T09:02:25.983Z,348.75
2023-04-02T09:03:25.904Z,331.88
2023-04-02T09:04:25.936Z,298.12
2023-04-02T09:05:26.004Z,303.75
2023-04-02T09:06:25.893Z,303.75
2023-04-02T09:07:25.926Z,286.88
2023-04-02T09:08:25.856Z,326.25
2023-04-02T09:09:25.829Z,348.75
2023-04-02T09:10:25.826Z,360.00
2023-04-02T09:11:25.807Z,382.50
2023-04-02T09:12:25.826Z,405.00
2023-04-02T09:13:25.791Z,489.38
2023-04-02T09:14:25.809Z,652.50
2023-04-02T09:15:25.767Z,1524.38
2023-04-02T09:16:25.798Z,894.38
2023-04-02T09:17:25.805Z,894.38
2023-04-02T09:18:25.793Z,714.38
2023-04-02T09:19:25.755Z,590.62
2023-04-02T09:20:25.731Z,556.88
2023-04-02T09:21:25.705Z,534.38
2023-04-02T09:22:25.705Z,517.50
2023-04-02T09:23:25.681Z,478.12
2023-04-02T09:24:25.667Z,444.38
2023-04-02T09:25:25.680Z,405.00
2023-04-02T09:26:25.654Z,388.12
2023-04-02T09:27:25.638Z,405.00
2023-04-02T09:28:25.640Z,438.75
2023-04-02T09:29:25.658Z,748.12
2023-04-02T09:30:25.656Z,523.12
2023-04-02T09:31:25.591Z,528.75
2023-04-02T09:32:25.630Z,517.50
2023-04-02T09:33:25.716Z,472.50
2023-04-02T09:34:25.575Z,444.38
2023-04-02T09:35:27.076Z,438.75
2023-04-02T09:36:25.588Z,540.00
2023-04-02T09:37:25.532Z,562.50
2023-04-02T09:38:25.533Z,562.50
2023-04-02T09:39:25.512Z,534.38
2023-04-02T09:40:25.494Z,573.75
2023-04-02T09:41:25.486Z,596.25
2023-04-02T09:42:25.475Z,562.50
2023-04-02T09:43:25.512Z,433.12
2023-04-02T09:44:25.455Z,466.88
2023-04-02T09:45:26.304Z,500.62
2023-04-02T09:46:25.462Z,511.88
2023-04-02T09:47:25.463Z,753.75
2023-04-02T09:48:25.425Z,540.00
2023-04-02T09:49:25.418Z,517.50
2023-04-02T09:50:25.383Z,3133.12
2023-04-02T09:51:25.390Z,1485.00
2023-04-02T09:52:25.366Z,1316.25
2023-04-02T09:53:25.361Z,1563.75
2023-04-02T09:54:25.356Z,798.75
2023-04-02T09:55:25.324Z,2784.38
2023-04-02T09:56:25.322Z,736.88
2023-04-02T09:57:25.404Z,866.25
2023-04-02T09:58:25.288Z,742.50
2023-04-02T09:59:25.295Z,838.12
2023-04-02T10:00:32.275Z,1113.75
2023-04-02T10:01:26.439Z,1018.12
2023-04-02T10:02:25.289Z,725.62
2023-04-02T10:03:25.258Z,725.62
2023-04-02T10:04:26.320Z,804.38
2023-04-02T10:05:39.442Z,950.62
2023-04-02T10:06:26.199Z,1051.88
2023-04-02T10:07:25.196Z,939.38
2023-04-02T10:08:25.184Z,697.50
2023-04-02T10:09:25.183Z,731.25
2023-04-02T10:10:26.319Z,680.62
2023-04-02T10:11:28.839Z,635.62
2023-04-02T10:12:26.138Z,669.38
2023-04-02T10:13:25.124Z,697.50
2023-04-02T10:14:25.114Z,815.62
2023-04-02T10:15:25.119Z,675.00
2023-04-02T10:16:26.479Z,1012.50
2023-04-02T10:17:25.096Z,967.50
2023-04-02T10:18:25.062Z,2784.38
2023-04-02T10:19:25.116Z,658.12
2023-04-02T10:20:25.044Z,562.50
2023-04-02T10:21:25.086Z,528.75
2023-04-02T10:22:25.028Z,545.62
2023-04-02T10:23:25.010Z,573.75
2023-04-02T10:24:25.001Z,573.75
2023-04-02T10:25:25.009Z,495.00
2023-04-02T10:26:24.987Z,461.25
2023-04-02T10:27:24.966Z,455.62
2023-04-02T10:28:24.954Z,455.62
2023-04-02T10:29:24.999Z,483.75
2023-04-02T10:30:24.993Z,466.88
2023-04-02T10:31:24.963Z,450.00
2023-04-02T10:32:25.009Z,433.12
2023-04-02T10:33:24.901Z,433.12
2023-04-02T10:34:24.910Z,421.88
2023-04-02T10:35:24.898Z,433.12
2023-04-02T10:36:24.871Z,438.75
2023-04-02T10:37:24.935Z,466.88
2023-04-02T10:38:24.848Z,500.62
2023-04-02T10:39:24.838Z,613.12
2023-04-02T10:40:24.823Z,826.88
2023-04-02T10:41:24.816Z,3543.75
2023-04-02T10:42:24.821Z,984.38
2023-04-02T10:43:24.806Z,826.88
2023-04-02T10:44:24.779Z,607.50
2023-04-02T10:45:24.768Z,590.62
2023-04-02T10:46:25.546Z,618.75
2023-04-02T10:47:24.742Z,618.75
2023-04-02T10:48:24.749Z,568.12
2023-04-02T10:49:24.738Z,500.62
2023-04-02T10:50:24.708Z,472.50
2023-04-02T10:51:24.736Z,483.75
2023-04-02T10:52:24.762Z,511.88
2023-04-02T10:53:24.698Z,478.12
2023-04-02T10:54:24.668Z,438.75
2023-04-02T10:55:24.659Z,416.25
2023-04-02T10:56:24.641Z,405.00
2023-04-02T10:57:24.668Z,410.62
2023-04-02T10:58:24.636Z,410.62
2023-04-02T10:59:24.616Z,405.00
2023-04-02T11:00:24.612Z,382.50
2023-04-02T11:01:24.637Z,405.00
2023-04-02T11:02:24.700Z,421.88
2023-04-02T11:03:24.700Z,416.25
2023-04-02T11:04:24.565Z,388.12
2023-04-02T11:05:24.545Z,360.00
2023-04-02T11:06:24.537Z,354.38
2023-04-02T11:07:24.516Z,360.00
2023-04-02T11:08:24.556Z,376.88
2023-04-02T11:09:24.511Z,371.25
2023-04-02T11:10:24.485Z,354.38
2023-04-02T11:11:24.480Z,360.00
2023-04-02T11:12:24.468Z,365.62
2023-04-02T11:13:24.477Z,365.62
2023-04-02T11:14:24.468Z,354.38
2023-04-02T11:15:24.434Z,337.50
2023-04-02T11:16:24.483Z,320.62
2023-04-02T11:17:24.464Z,326.25
2023-04-02T11:18:24.404Z,320.62
2023-04-02T11:19:24.396Z,309.38
2023-04-02T11:20:24.375Z,320.62
2023-04-02T11:21:24.366Z,326.25
2023-04-02T11:22:24.364Z,326.25
2023-04-02T11:23:24.360Z,320.62
2023-04-02T11:24:24.335Z,320.62
2023-04-02T11:25:24.342Z,315.00
2023-04-02T11:26:24.330Z,303.75
2023-04-02T11:27:24.475Z,298.12
2023-04-02T11:28:25.110Z,309.38
2023-04-02T11:29:24.412Z,320.62
2023-04-02T11:30:24.281Z,326.25
2023-04-02T11:31:24.304Z,315.00
2023-04-02T11:32:24.309Z,303.75
2023-04-02T11:33:35.849Z,303.75
2023-04-02T11:34:25.224Z,320.62
2023-04-02T11:35:24.225Z,326.25
2023-04-02T11:36:24.864Z,320.62
2023-04-02T11:37:24.187Z,309.38
2023-04-02T11:38:24.185Z,315.00
2023-04-02T11:39:24.164Z,315.00
2023-04-02T11:40:24.151Z,320.62
2023-04-02T11:41:24.206Z,337.50
2023-04-02T11:42:24.128Z,326.25
2023-04-02T11:43:24.253Z,298.12
2023-04-02T11:44:24.146Z,337.50
2023-04-02T11:45:24.113Z,444.38
2023-04-02T11:46:24.127Z,427.50
2023-04-02T11:47:24.163Z,517.50
2023-04-02T11:48:24.062Z,1873.12
2023-04-02T11:49:24.066Z,1063.12
2023-04-02T11:50:24.045Z,2362.50
2023-04-02T11:51:24.052Z,1018.12
2023-04-02T11:52:24.024Z,1080.00
2023-04-02T11:53:24.008Z,871.88
2023-04-02T11:54:24.015Z,821.25
2023-04-02T11:55:23.986Z,832.50
2023-04-02T11:56:23.972Z,826.88
2023-04-02T11:57:24.020Z,866.25
2023-04-02T11:58:23.968Z,1856.25
2023-04-02T11:59:23.948Z,1186.88
2023-04-02T12:00:23.930Z,1490.62
2023-04-02T12:01:23.917Z,905.62
2023-04-02T12:02:23.998Z,1029.38
2023-04-02T12:03:23.974Z,1023.75
2023-04-02T12:04:23.905Z,2671.88
2023-04-02T12:05:23.910Z,956.25
2023-04-02T12:06:23.866Z,1276.88
2023-04-02T12:07:23.852Z,950.62
2023-04-02T12:08:23.926Z,900.00
2023-04-02T12:09:23.913Z,596.25
2023-04-02T12:10:24.033Z,528.75
2023-04-02T12:11:23.843Z,506.25
2023-04-02T12:12:23.809Z,421.88
2023-04-02T12:13:23.818Z,360.00
2023-04-02T12:14:23.866Z,320.62
2023-04-02T12:15:23.759Z,281.25
2023-04-02T12:16:23.810Z,264.38
2023-04-02T12:17:23.762Z,275.62
2023-04-02T12:18:23.780Z,292.50
2023-04-02T12:19:24.405Z,315.00
2023-04-02T12:20:23.705Z,315.00
2023-04-02T12:21:23.695Z,309.38
2023-04-02T12:22:23.705Z,315.00
2023-04-02T12:23:23.723Z,337.50
2023-04-02T12:24:23.657Z,382.50
2023-04-02T12:25:23.653Z,427.50
2023-04-02T12:26:23.665Z,455.62
2023-04-02T12:27:23.638Z,500.62
2023-04-02T12:28:23.632Z,523.12
2023-04-02T12:29:23.634Z,506.25
2023-04-02T12:30:23.590Z,500.62
2023-04-02T12:31:23.603Z,511.88
2023-04-02T12:32:23.693Z,517.50
2023-04-02T12:33:23.585Z,545.62
2023-04-02T12:34:23.547Z,1186.88
2023-04-02T12:35:23.535Z,2756.25
2023-04-02T12:36:23.639Z,2874.38
2023-04-02T12:37:23.525Z,821.25
2023-04-02T12:38:23.525Z,675.00
2023-04-02T12:39:25.885Z,590.62
2023-04-02T12:40:23.478Z,652.50
2023-04-02T12:41:23.471Z,781.88
2023-04-02T12:42:23.455Z,1254.38
2023-04-02T12:43:23.452Z,1732.50
2023-04-02T12:44:23.437Z,1057.50
2023-04-02T12:45:23.725Z,2092.50
2023-04-02T12:46:23.493Z,871.88
2023-04-02T12:47:23.430Z,1119.38